Time;durP1;ratioP1;P1;durP2;ratioP2;P2;SDS_P1;SDS_P2;PMS_P1;PMS_P2;Temp;Humidity;BMP_temperature;BMP_pressure;BME280_temperature;BME280_humidity;BME280_pressure;Samples;Min_cycle;Max_cycle;Signal;HPM_P1;HPM_P2
2021/01/19 05:05:21;;;;;;;1.80;1.70;;;;;;;22.26;46.46;98738.38;22347523;23;20290;-67
2021/01/19 05:15:23;;;;;;;2.17;2.00;;;;;;;22.33;46.81;98731.50;20186784;29;20278;-66
2021/01/19 05:25:26;;;;;;;2.00;1.80;;;;;;;22.55;46.13;98718.69;20141414;29;20250;-67
2021/01/19 05:35:27;;;;;;;1.80;1.70;;;;;;;22.75;45.99;98710.25;20150461;29;20223;-67
2021/01/19 05:45:30;;;;;;;1.93;1.80;;;;;;;22.89;45.73;98682.56;20156512;29;20231;-66
2021/01/19 05:55:31;;;;;;;1.50;1.40;;;;;;;22.98;45.67;98673.63;20134857;29;20244;-66
2021/01/19 06:05:34;;;;;;;1.80;1.70;;;;;;;22.99;45.66;98660.41;20154049;29;20641;-66
2021/01/19 06:15:35;;;;;;;1.70;1.60;;;;;;;22.95;45.52;98650.47;20170559;29;20631;-66
2021/01/19 06:25:38;;;;;;;2.10;1.90;;;;;;;22.89;45.46;98648.56;20156008;29;20224;-65
2021/01/19 06:35:40;;;;;;;1.90;1.80;;;;;;;22.83;45.48;98633.59;20155288;29;20283;-65
2021/01/19 06:45:42;;;;;;;1.80;1.70;;;;;;;22.78;45.65;98622.84;20157156;29;20828;-66
2021/01/19 06:56:00;;;;;;;1.50;1.40;;;;;;;22.74;45.83;98600.69;20183517;29;20293;-67
2021/01/19 07:06:04;;;;;;;1.83;1.50;;;;;;;22.76;46.21;98590.84;20147298;29;20782;-66
2021/01/19 07:16:06;;;;;;;2.93;1.97;;;;;;;22.83;46.03;98591.78;20192929;29;20214;-67
2021/01/19 07:26:09;;;;;;;1.80;1.70;;;;;;;22.89;46.11;98578.03;20156536;29;20223;-67
2021/01/19 07:36:13;;;;;;;3.50;1.70;;;;;;;22.89;46.16;98585.84;20115754;29;20252;-66
2021/01/19 07:46:15;;;;;;;2.03;1.80;;;;;;;22.85;45.83;98569.72;20122965;29;20271;-66
2021/01/19 07:56:27;;;;;;;6.03;2.00;;;;;;;22.81;45.87;98546.72;20131317;29;20255;-66
2021/01/19 08:06:30;;;;;;;3.00;2.03;;;;;;;22.50;40.94;98548.59;20136034;29;20282;-66
2021/01/19 08:16:32;;;;;;;2.43;1.90;;;;;;;22.44;43.09;98538.84;20150780;29;20244;-67
2021/01/19 08:26:35;;;;;;;4.07;2.40;;;;;;;22.55;43.21;98535.84;20147030;29;20288;-66
2021/01/19 08:36:37;;;;;;;3.80;2.10;;;;;;;22.69;43.21;98527.25;20157846;29;20707;-67
2021/01/19 08:46:40;;;;;;;2.77;2.33;;;;;;;22.81;43.42;98510.13;20183845;29;20218;-66
2021/01/19 08:56:42;;;;;;;4.23;2.00;;;;;;;22.85;43.81;98490.50;20168592;29;20214;-66
2021/01/19 09:06:45;;;;;;;3.73;2.10;;;;;;;22.85;43.67;98483.47;20148632;29;20227;-66
2021/01/19 09:16:48;;;;;;;2.30;2.10;;;;;;;22.83;43.80;98468.97;20154836;29;20263;-66
2021/01/19 09:26:58;;;;;;;5.80;4.20;;;;;;;22.79;44.05;98446.81;20145502;29;20222;-66
2021/01/19 09:37:00;;;;;;;5.00;4.37;;;;;;;22.77;44.57;98425.28;20169279;29;20787;-65
2021/01/19 09:47:03;;;;;;;4.57;4.27;;;;;;;22.76;44.82;98419.22;20153556;29;20585;-66
2021/01/19 09:57:07;;;;;;;6.93;4.73;;;;;;;22.76;44.87;98397.50;20185880;29;20219;-65
2021/01/19 10:07:09;;;;;;;5.40;4.90;;;;;;;22.75;45.00;98382.84;20143839;29;20224;-65
2021/01/19 10:17:11;;;;;;;5.30;4.77;;;;;;;22.78;45.06;98356.34;20159849;29;20220;-66
2021/01/19 10:27:18;;;;;;;6.33;5.10;;;;;;;22.81;45.02;98340.28;20150647;29;20218;-67
2021/01/19 10:37:19;;;;;;;5.10;4.33;;;;;;;22.82;44.95;98310.56;20171559;29;20252;-68
2021/01/19 10:47:22;;;;;;;4.37;3.80;;;;;;;22.83;45.18;98286.06;20175945;29;20255;-67
2021/01/19 10:57:23;;;;;;;6.40;4.47;;;;;;;22.81;45.25;98274.97;20180649;29;20223;-67
2021/01/19 11:07:26;;;;;;;4.23;3.90;;;;;;;22.80;45.38;98247.25;20172884;29;20287;-68
2021/01/19 11:17:29;;;;;;;6.80;4.20;;;;;;;22.78;45.50;98241.38;20123845;29;20207;-67
2021/01/19 11:27:32;;;;;;;4.23;3.80;;;;;;;22.76;45.41;98205.00;20167137;29;20936;-67
2021/01/19 11:37:33;;;;;;;3.70;3.47;;;;;;;22.78;45.47;98191.75;20148910;29;20604;-67
2021/01/19 11:47:36;;;;;;;4.93;3.83;;;;;;;22.79;45.39;98193.38;20174120;29;20219;-65
2021/01/19 11:57:38;;;;;;;3.80;3.40;;;;;;;22.77;45.25;98174.47;20171698;29;20220;-65
2021/01/19 12:07:40;;;;;;;4.27;3.33;;;;;;;22.81;45.43;98141.72;20129499;29;20219;-67
2021/01/19 12:17:42;;;;;;;3.47;3.03;;;;;;;22.81;45.66;98128.66;20143710;29;20215;-66
2021/01/19 12:27:47;;;;;;;3.50;3.20;;;;;;;22.81;45.84;98102.53;20162430;29;20227;-64
2021/01/19 12:37:48;;;;;;;3.73;3.13;;;;;;;22.83;45.75;98070.00;20118893;29;20215;-66
2021/01/19 12:47:51;;;;;;;3.60;3.30;;;;;;;22.79;46.01;98053.09;20181553;29;20214;-65
2021/01/19 12:57:52;;;;;;;3.00;2.70;;;;;;;22.78;46.01;98040.22;20188742;29;20218;-65
2021/01/19 13:07:55;;;;;;;7.93;4.77;;;;;;;22.73;43.24;98021.69;20166136;29;20223;-66
2021/01/19 13:17:56;;;;;;;5.30;3.70;;;;;;;22.60;44.12;98016.38;20181108;29;20260;-66
2021/01/19 13:27:59;;;;;;;3.87;2.83;;;;;;;22.66;43.70;98011.19;20200957;29;20227;-65
2021/01/19 13:38:01;;;;;;;5.20;2.90;;;;;;;22.76;44.05;98009.06;20170094;29;20691;-65
2021/01/19 13:48:04;;;;;;;3.97;3.00;;;;;;;22.87;43.94;98007.75;20195274;29;20226;-65
2021/01/19 13:58:06;;;;;;;2.90;2.70;;;;;;;22.93;43.97;98002.56;20174643;29;20276;-66
2021/01/19 14:08:11;;;;;;;5.90;3.40;;;;;;;22.95;43.87;98003.19;20155024;29;20223;-67
2021/01/19 14:18:13;;;;;;;3.37;3.07;;;;;;;22.94;44.51;98019.06;20146806;29;20266;-67
2021/01/19 14:28:16;;;;;;;3.43;2.30;;;;;;;22.88;44.77;98010.16;20170169;29;20230;-65
2021/01/19 14:38:17;;;;;;;3.50;2.70;;;;;;;22.85;45.09;98010.53;20164339;29;20718;-66
2021/01/19 14:48:22;;;;;;;4.50;2.87;;;;;;;22.86;45.61;98019.16;20156254;29;20267;-66
2021/01/19 14:58:24;;;;;;;5.20;2.60;;;;;;;22.87;45.70;98023.41;20163733;29;20776;-65
2021/01/19 15:08:26;;;;;;;3.20;3.00;;;;;;;22.93;45.84;98023.47;20170395;29;20262;-66
2021/01/19 15:18:28;;;;;;;3.40;3.10;;;;;;;22.96;45.83;98028.28;20150716;29;20700;-65
2021/01/19 15:28:30;;;;;;;2.67;2.47;;;;;;;23.00;45.58;98020.88;20150918;29;20227;-67
2021/01/19 15:38:32;;;;;;;3.40;2.70;;;;;;;23.01;45.86;98028.53;20146246;29;20215;-66
2021/01/19 15:48:34;;;;;;;3.20;2.77;;;;;;;22.98;46.00;98036.75;20147453;29;20271;-66
2021/01/19 15:58:36;;;;;;;3.10;2.73;;;;;;;22.95;46.26;98044.16;20188279;29;20275;-67
2021/01/19 16:08:38;;;;;;;2.80;2.50;;;;;;;22.94;46.39;98053.03;20180637;29;20680;-66
2021/01/19 16:18:40;;;;;;;4.27;2.77;;;;;;;22.92;46.30;98057.63;20152246;29;20211;-65
2021/01/19 16:28:42;;;;;;;2.70;2.50;;;;;;;22.93;46.43;98067.06;20161428;29;20222;-66
2021/01/19 16:38:44;;;;;;;3.17;2.93;;;;;;;22.95;46.45;98063.28;20149186;29;20216;-66
2021/01/19 16:48:47;;;;;;;3.10;2.90;;;;;;;22.98;46.35;98077.75;20145040;29;20662;-67
2021/01/19 16:58:48;;;;;;;3.00;2.80;;;;;;;22.96;46.42;98075.34;20178283;29;20218;-75
2021/01/19 17:08:51;;;;;;;4.40;2.90;;;;;;;22.42;41.08;98079.47;20158824;29;21133;-77
2021/01/19 17:18:53;;;;;;;2.20;2.00;;;;;;;22.51;42.04;98061.84;20149949;29;20215;-76
2021/01/19 17:28:55;;;;;;;2.20;2.00;;;;;;;22.59;42.46;98067.00;20146978;29;20365;-72
2021/01/19 17:38:57;;;;;;;2.37;2.17;;;;;;;22.68;42.81;98073.69;20154523;29;20259;-75
2021/01/19 17:49:00;;;;;;;3.33;1.90;;;;;;;22.76;43.22;98074.38;20166505;29;20215;-74
2021/01/19 17:59:01;;;;;;;2.80;1.60;;;;;;;22.76;43.47;98078.78;20152750;29;20215;-74
2021/01/19 18:09:05;;;;;;;1.90;1.40;;;;;;;22.73;44.03;98094.84;20165787;29;20251;-75
2021/01/19 18:19:07;;;;;;;1.53;1.43;;;;;;;22.74;44.33;98099.88;20145176;29;20243;-78
2021/01/19 18:29:11;;;;;;;1.83;1.63;;;;;;;22.75;44.51;98109.34;20140555;29;20263;-80
2021/01/19 18:39:12;;;;;;;1.53;1.37;;;;;;;22.79;44.79;98115.00;20141146;29;20215;-79
2021/01/19 18:49:15;;;;;;;1.20;1.10;;;;;;;22.78;44.73;98108.13;20161812;29;20286;-81
2021/01/19 18:59:16;;;;;;;1.60;1.30;;;;;;;22.77;44.80;98106.53;20149119;29;20219;-79
2021/01/19 19:09:19;;;;;;;1.20;1.10;;;;;;;22.73;45.15;98113.13;20149420;29;20227;-78
2021/01/19 19:19:21;;;;;;;1.40;1.30;;;;;;;22.69;45.24;98099.63;20139841;29;20570;-79
2021/01/19 19:29:23;;;;;;;1.43;1.30;;;;;;;22.79;45.05;98109.78;20142781;29;20231;-80
2021/01/19 19:39:25;;;;;;;3.50;1.00;;;;;;;22.82;45.15;98086.69;20133107;29;20223;-82
2021/01/19 19:49:27;;;;;;;1.80;1.13;;;;;;;22.88;45.06;98087.72;20134322;29;20231;-82
2021/01/19 19:59:29;;;;;;;1.17;1.07;;;;;;;22.79;45.33;98092.28;20135297;29;20704;-81
2021/01/19 20:09:32;;;;;;;1.10;1.00;;;;;;;22.81;45.36;98058.13;20141742;29;20228;-80
2021/01/19 20:19:33;;;;;;;1.20;1.10;;;;;;;22.90;45.19;98091.78;20158000;29;20211;-82
2021/01/19 20:29:36;;;;;;;5.07;3.13;;;;;;;23.04;44.88;98088.25;20156991;29;20755;-81
2021/01/19 20:39:38;;;;;;;2.47;2.07;;;;;;;23.06;44.98;98080.22;20164793;29;20214;-76
2021/01/19 20:49:41;;;;;;;4.60;2.30;;;;;;;23.07;45.15;98072.22;20171432;29;20588;-75
2021/01/19 20:59:43;;;;;;;3.33;2.20;;;;;;;23.05;45.00;98073.38;20183528;29;20220;-74
2021/01/19 21:09:46;;;;;;;3.43;2.37;;;;;;;23.01;44.94;98064.31;20168024;29;20228;-75
2021/01/19 21:19:48;;;;;;;3.13;2.30;;;;;;;22.94;45.05;98056.41;20182919;29;20901;-76
2021/01/19 21:29:50;;;;;;;2.23;2.03;;;;;;;22.93;45.01;98054.81;20164128;29;20818;-75
2021/01/19 21:39:52;;;;;;;3.03;2.30;;;;;;;22.90;44.97;98049.97;20161960;29;20274;-76
2021/01/19 21:49:54;;;;;;;2.33;2.10;;;;;;;22.85;45.06;98048.91;20177566;29;20223;-75
2021/01/19 21:59:56;;;;;;;2.43;2.23;;;;;;;22.86;45.01;98042.69;20179730;29;20708;-78
2021/01/19 22:09:59;;;;;;;2.30;2.10;;;;;;;22.85;45.46;98041.91;20146964;29;20640;-74
2021/01/19 22:20:00;;;;;;;2.07;1.87;;;;;;;22.86;45.52;98034.84;20185143;29;20272;-74
2021/01/19 22:30:03;;;;;;;2.73;2.20;;;;;;;22.84;45.42;98035.03;20147688;29;20696;-75
2021/01/19 22:40:06;;;;;;;4.60;2.43;;;;;;;22.83;45.51;98038.66;20169828;29;20219;-76
2021/01/19 22:50:10;;;;;;;3.00;2.20;;;;;;;22.81;45.53;98024.16;20153642;29;20231;-78
2021/01/19 23:00:12;;;;;;;2.63;1.80;;;;;;;22.78;45.59;98027.16;20185213;29;20219;-77
2021/01/19 23:10:15;;;;;;;4.60;2.53;;;;;;;22.78;45.74;98025.38;20144373;29;20248;-75
2021/01/19 23:20:17;;;;;;;3.27;2.07;;;;;;;22.78;45.86;98014.09;20183012;29;20199;-76
2021/01/19 23:30:20;;;;;;;4.13;2.77;;;;;;;22.77;45.96;98000.25;20154900;29;20569;-76
2021/01/19 23:40:22;;;;;;;2.13;1.90;;;;;;;22.74;46.21;97987.53;20156563;29;20207;-76
2021/01/19 23:50:24;;;;;;;2.10;1.90;;;;;;;22.72;46.02;97973.06;20178753;29;20279;-76
